Time;durP1;ratioP1;P1;durP2;ratioP2;P2;SDS_P1;SDS_P2;PMS_P1;PMS_P2;Temp;Humidity;BMP_temperature;BMP_pressure;BME280_temperature;BME280_humidity;BME280_pressure;Samples;Min_cycle;Max_cycle;Signal;HPM_P1;HPM_P2
2022/10/17 00:00:48;;;;;;;20.80;14.18;;;13.80;99.90;;;;;;6271412;22;20011;-74
2022/10/17 00:03:15;;;;;;;17.15;13.57;;;13.80;99.90;;;;;;6271804;22;20437;-75
2022/10/17 00:05:42;;;;;;;19.60;13.93;;;13.90;99.90;;;;;;6270744;22;20025;-74
2022/10/17 00:08:10;;;;;;;20.70;14.88;;;14.60;99.90;;;;;;6271819;22;20000;-75
2022/10/17 00:10:37;;;;;;;15.57;13.73;;;14.20;99.90;;;;;;6271739;22;20374;-74
2022/10/17 00:13:03;;;;;;;18.88;15.70;;;13.80;99.90;;;;;;6273615;22;20000;-75
2022/10/17 00:15:29;;;;;;;16.98;14.20;;;13.70;99.90;;;;;;6273251;22;20034;-75
2022/10/17 00:17:54;;;;;;;18.40;15.82;;;13.70;99.90;;;;;;6272958;22;20356;-74
2022/10/17 00:20:20;;;;;;;20.42;15.60;;;13.60;99.90;;;;;;6272679;22;20007;-74
2022/10/17 00:22:46;;;;;;;15.77;13.82;;;13.80;99.90;;;;;;6273078;22;20693;-74
2022/10/17 00:25:11;;;;;;;18.70;16.75;;;13.80;99.90;;;;;;6273987;22;20000;-75
2022/10/17 00:27:39;;;;;;;19.45;16.35;;;13.70;99.90;;;;;;6272864;22;19999;-75
2022/10/17 00:30:07;;;;;;;18.55;14.63;;;13.70;99.90;;;;;;6273517;22;20000;-74
2022/10/17 00:32:32;;;;;;;19.75;15.60;;;13.70;99.90;;;;;;6272441;22;20046;-74
2022/10/17 00:34:58;;;;;;;18.48;14.85;;;13.80;99.90;;;;;;6273173;22;20075;-74
2022/10/17 00:37:24;;;;;;;17.75;14.13;;;15.00;99.90;;;;;;6272988;22;20329;-75
2022/10/17 00:39:49;;;;;;;20.35;15.05;;;13.70;99.90;;;;;;6273186;22;20003;-74
2022/10/17 00:42:15;;;;;;;17.15;14.70;;;13.70;99.90;;;;;;6273201;22;20010;-74
2022/10/17 00:44:40;;;;;;;23.63;16.65;;;13.10;99.90;;;;;;6273053;22;20422;-74
2022/10/17 00:47:12;;;;;;;17.77;15.88;;;13.80;99.90;;;;;;6272582;22;20030;-75
2022/10/17 00:49:39;;;;;;;23.33;18.48;;;13.80;99.90;;;;;;6272703;22;20004;-74
2022/10/17 00:52:12;;;;;;;21.75;17.27;;;13.70;99.90;;;;;;6272987;22;20007;-75
2022/10/17 00:54:42;;;;;;;19.42;16.55;;;13.80;99.90;;;;;;6272867;22;20047;-75
2022/10/17 00:57:08;;;;;;;23.02;19.73;;;14.60;99.90;;;;;;6273192;22;19999;-75
2022/10/17 00:59:36;;;;;;;22.13;18.05;;;13.60;99.90;;;;;;6272794;22;20034;-75
2022/10/17 01:02:12;;;;;;;30.95;24.30;;;13.70;99.90;;;;;;6272691;22;20071;-74
2022/10/17 01:04:41;;;;;;;26.85;21.08;;;13.90;99.90;;;;;;6272432;22;20049;-74
2022/10/17 01:07:06;;;;;;;27.10;19.70;;;13.80;99.90;;;;;;6273495;22;20368;-74
2022/10/17 01:09:32;;;;;;;24.38;18.83;;;14.50;99.90;;;;;;6272770;22;20034;-75
2022/10/17 01:12:22;;;;;;;22.85;16.50;;;13.80;99.90;;;;;;6272707;22;20027;-75
2022/10/17 01:14:52;;;;;;;22.60;18.02;;;13.80;99.90;;;;;;6272820;22;20004;-74
2022/10/17 01:17:44;;;;;;;21.75;19.25;;;13.70;99.90;;;;;;6270255;22;20026;-74
2022/10/17 01:20:10;;;;;;;24.38;17.65;;;13.80;99.90;;;;;;6273053;22;20117;-75
2022/10/17 01:22:45;;;;;;;20.30;17.83;;;13.80;99.90;;;;;;6272121;22;20494;-75
2022/10/17 01:25:44;;;;;;;19.45;16.85;;;13.70;99.90;;;;;;6273353;22;20046;-74
2022/10/17 01:28:37;;;;;;;24.67;18.95;;;13.80;99.90;;;;;;6272748;22;20094;-75
2022/10/17 01:31:13;;;;;;;25.00;20.05;;;13.80;99.90;;;;;;6272654;22;20711;-75
2022/10/17 01:33:53;;;;;;;24.27;20.80;;;13.80;99.90;;;;;;6272012;22;20011;-74
2022/10/17 01:36:37;;;;;;;28.10;21.13;;;13.90;99.90;;;;;;6272355;22;20002;-74
2022/10/17 01:39:28;;;;;;;25.23;19.43;;;13.80;99.90;;;;;;6272984;22;19996;-75
2022/10/17 01:42:13;;;;;;;27.42;21.55;;;13.90;99.90;;;;;;6272648;22;20234;-74
2022/10/17 01:44:57;;;;;;;22.70;18.77;;;13.70;99.90;;;;;;6272100;22;20006;-75
2022/10/17 01:47:27;;;;;;;20.65;17.50;;;13.80;99.90;;;;;;6272236;22;19999;-74
2022/10/17 01:49:56;;;;;;;19.10;16.73;;;15.40;99.90;;;;;;6272634;22;20000;-75
2022/10/17 01:52:26;;;;;;;18.42;15.30;;;13.80;99.90;;;;;;6272096;22;20086;-75
2022/10/17 01:55:01;;;;;;;21.50;16.70;;;13.80;99.90;;;;;;6272480;22;20015;-75
2022/10/17 01:57:32;;;;;;;20.55;16.40;;;13.60;99.90;;;;;;6272341;22;20279;-74
2022/10/17 01:59:59;;;;;;;22.98;18.17;;;13.80;99.90;;;;;;6271892;22;20330;-74
2022/10/17 02:02:26;;;;;;;24.00;18.65;;;13.80;99.90;;;;;;6272358;22;20007;-74
2022/10/17 02:04:53;;;;;;;26.55;20.75;;;13.90;99.90;;;;;;6272292;22;20000;-74
2022/10/17 02:07:19;;;;;;;21.67;18.63;;;13.90;99.90;;;;;;6272191;22;20038;-74
2022/10/17 02:09:44;;;;;;;22.23;19.45;;;13.90;99.90;;;;;;6272093;22;20004;-74
2022/10/17 02:12:24;;;;;;;23.73;20.00;;;14.00;99.90;;;;;;6272265;22;20000;-75
2022/10/17 02:15:08;;;;;;;21.55;17.70;;;14.00;99.90;;;;;;6271616;22;20409;-75
2022/10/17 02:17:59;;;;;;;21.35;18.83;;;14.00;99.90;;;;;;6271909;22;20330;-75
2022/10/17 02:20:56;;;;;;;25.20;18.90;;;14.00;99.90;;;;;;6272035;22;20022;-74
2022/10/17 02:24:00;;;;;;;22.75;20.20;;;14.10;99.90;;;;;;6271955;22;20011;-75
2022/10/17 02:26:26;;;;;;;24.13;17.40;;;14.10;99.90;;;;;;6271806;22;19999;-75
2022/10/17 02:29:04;;;;;;;21.45;18.75;;;13.80;99.90;;;;;;6271336;22;20010;-75
2022/10/17 02:31:42;;;;;;;21.20;17.83;;;14.20;99.90;;;;;;6271658;22;20034;-75
2022/10/17 02:34:35;;;;;;;24.63;19.70;;;14.10;99.90;;;;;;6271972;22;20425;-74
2022/10/17 02:37:04;;;;;;;22.55;17.35;;;14.00;99.90;;;;;;6259405;22;20046;-75
2022/10/17 02:39:31;;;;;;;24.95;18.83;;;14.00;99.90;;;;;;6271813;22;20018;-74
2022/10/17 02:42:01;;;;;;;22.25;18.42;;;14.80;99.90;;;;;;6271883;22;20004;-75
2022/10/17 02:44:28;;;;;;;24.20;18.42;;;14.00;99.90;;;;;;6271123;22;20002;-75
2022/10/17 02:47:02;;;;;;;25.77;20.05;;;14.10;99.90;;;;;;6271740;22;20014;-74
2022/10/17 02:49:32;;;;;;;31.23;23.00;;;13.90;99.90;;;;;;6271953;22;20003;-74
2022/10/17 02:52:14;;;;;;;27.25;21.20;;;14.00;99.90;;;;;;6271861;22;20000;-74
2022/10/17 02:55:09;;;;;;;27.95;21.50;;;14.00;99.90;;;;;;6272001;22;20283;-74
2022/10/17 02:57:44;;;;;;;23.63;19.88;;;14.00;99.90;;;;;;6270888;22;20010;-75
2022/10/17 03:00:13;;;;;;;27.17;19.35;;;14.10;99.90;;;;;;6272203;22;20003;-74
2022/10/17 03:02:47;;;;;;;25.45;18.70;;;15.30;99.90;;;;;;6271384;22;20079;-74
2022/10/17 03:05:15;;;;;;;25.85;19.52;;;14.20;99.90;;;;;;6270616;22;20004;-74
2022/10/17 03:07:41;;;;;;;24.40;18.50;;;14.10;99.90;;;;;;6272042;22;20004;-74
2022/10/17 03:10:06;;;;;;;23.45;18.65;;;13.90;99.90;;;;;;6271849;22;20002;-74
2022/10/17 03:12:32;;;;;;;24.98;18.40;;;14.00;99.90;;;;;;6271423;22;20011;-74
2022/10/17 03:14:58;;;;;;;22.10;17.77;;;14.00;99.90;;;;;;6271524;22;20003;-74
2022/10/17 03:17:23;;;;;;;24.45;17.60;;;14.10;99.90;;;;;;6269342;22;20415;-74
2022/10/17 03:19:49;;;;;;;24.23;18.38;;;14.10;99.90;;;;;;6268627;22;20031;-74
2022/10/17 03:22:14;;;;;;;27.33;18.65;;;14.10;99.90;;;;;;6269069;22;20016;-74
2022/10/17 03:24:40;;;;;;;28.17;19.17;;;14.10;99.90;;;;;;6269354;22;20023;-73
2022/10/17 03:27:05;;;;;;;22.63;18.30;;;14.20;99.90;;;;;;6268843;22;20006;-74
2022/10/17 03:29:31;;;;;;;22.17;17.35;;;14.20;99.90;;;;;;6269030;22;19999;-74
2022/10/17 03:31:56;;;;;;;24.50;16.60;;;14.30;99.90;;;;;;6270024;22;20008;-74
2022/10/17 03:34:22;;;;;;;22.80;17.13;;;14.20;99.90;;;;;;6271502;22;20321;-74
2022/10/17 03:36:47;;;;;;;23.13;16.00;;;14.20;99.90;;;;;;6271323;22;20004;-74
2022/10/17 03:39:13;;;;;;;23.42;17.45;;;14.20;99.90;;;;;;6271853;22;19999;-75
2022/10/17 03:41:39;;;;;;;26.17;17.38;;;14.20;99.90;;;;;;6270064;22;20410;-75
2022/10/17 03:44:04;;;;;;;20.92;16.27;;;14.10;99.90;;;;;;6271757;22;20393;-73
2022/10/17 03:46:30;;;;;;;24.67;16.83;;;14.00;99.90;;;;;;6273129;22;19999;-74
2022/10/17 03:48:55;;;;;;;21.45;15.73;;;14.20;99.90;;;;;;6272035;22;20008;-74
2022/10/17 03:51:21;;;;;;;21.73;15.90;;;14.10;99.90;;;;;;6273311;22;20066;-74
2022/10/17 03:53:46;;;;;;;21.27;15.52;;;14.20;99.90;;;;;;6273401;22;20083;-74
2022/10/17 03:56:20;;;;;;;18.15;15.77;;;14.10;99.90;;;;;;6273526;22;19999;-74
2022/10/17 03:58:46;;;;;;;17.92;15.98;;;14.20;99.90;;;;;;6273644;22;20000;-74
2022/10/17 04:01:14;;;;;;;21.98;17.48;;;14.20;99.90;;;;;;6273741;22;20000;-74
2022/10/17 04:03:40;;;;;;;20.85;16.85;;;14.10;99.90;;;;;;6273553;22;20008;-74
2022/10/17 04:06:06;;;;;;;19.50;15.93;;;14.20;99.90;;;;;;6273516;22;20035;-73
2022/10/17 04:08:33;;;;;;;19.23;16.60;;;14.20;99.90;;;;;;6273257;22;20004;-74
2022/10/17 04:11:00;;;;;;;23.70;16.45;;;14.10;99.90;;;;;;6273082;22;19999;-76
2022/10/17 04:13:26;;;;;;;19.75;15.15;;;14.20;99.90;;;;;;6272975;22;20007;-74
2022/10/17 04:15:59;;;;;;;17.17;15.13;;;14.10;99.90;;;;;;6273453;22;20083;-74
2022/10/17 04:18:25;;;;;;;21.23;15.40;;;14.10;99.90;;;;;;6273100;22;20110;-74
2022/10/17 04:20:51;;;;;;;20.10;15.90;;;14.10;99.90;;;;;;6273165;22;20263;-74
2022/10/17 04:23:17;;;;;;;19.67;16.02;;;14.10;99.90;;;;;;6272566;22;20014;-74
2022/10/17 04:25:42;;;;;;;22.42;15.90;;;14.10;99.90;;;;;;6272451;22;20375;-74
2022/10/17 04:28:08;;;;;;;23.67;17.75;;;14.20;99.90;;;;;;6272902;22;20003;-74
2022/10/17 04:30:33;;;;;;;19.90;16.00;;;14.20;99.90;;;;;;6272759;22;20012;-75
2022/10/17 04:32:59;;;;;;;19.42;15.57;;;14.20;99.90;;;;;;6272348;22;20061;-74
2022/10/17 04:35:25;;;;;;;19.15;14.55;;;14.30;99.90;;;;;;6272799;22;20077;-74
2022/10/17 04:37:50;;;;;;;19.90;15.90;;;14.20;99.90;;;;;;6272408;22;20006;-74
2022/10/17 04:40:16;;;;;;;18.92;14.90;;;14.30;99.90;;;;;;6271853;22;20011;-75
2022/10/17 04:42:41;;;;;;;17.75;14.98;;;14.50;99.90;;;;;;6272407;22;20008;-74
2022/10/17 04:45:07;;;;;;;22.05;16.75;;;14.30;99.90;;;;;;6273036;22;20408;-74
2022/10/17 04:47:33;;;;;;;20.05;15.73;;;14.30;99.90;;;;;;6270690;22;20000;-74
2022/10/17 04:49:58;;;;;;;18.08;14.70;;;14.20;99.90;;;;;;6272915;22;19998;-74
2022/10/17 04:52:24;;;;;;;17.88;15.10;;;14.30;99.90;;;;;;6272897;22;20035;-73
2022/10/17 04:54:50;;;;;;;21.13;14.38;;;14.30;99.90;;;;;;6272866;22;20002;-74
2022/10/17 04:57:16;;;;;;;20.63;14.48;;;14.30;99.90;;;;;;6272588;22;19996;-74
2022/10/17 04:59:42;;;;;;;21.60;16.23;;;14.30;99.90;;;;;;6273110;22;20002;-74
2022/10/17 05:02:07;;;;;;;17.75;14.75;;;14.30;99.90;;;;;;6273389;22;19995;-74
2022/10/17 05:04:33;;;;;;;18.58;13.70;;;14.30;99.90;;;;;;6272919;22;20313;-74
2022/10/17 05:06:58;;;;;;;17.85;14.10;;;14.20;99.90;;;;;;6273127;22;20041;-74
2022/10/17 05:09:24;;;;;;;23.33;14.98;;;14.30;99.90;;;;;;6272422;22;20057;-74
2022/10/17 05:11:49;;;;;;;19.35;13.90;;;14.30;99.90;;;;;;6273070;22;20298;-74
2022/10/17 05:14:15;;;;;;;19.17;14.32;;;14.40;99.90;;;;;;6273045;22;20329;-74
2022/10/17 05:16:40;;;;;;;18.83;14.18;;;14.30;99.90;;;;;;6273165;22;20389;-74
2022/10/17 05:19:06;;;;;;;15.43;13.75;;;14.30;99.90;;;;;;6273155;22;19996;-74
2022/10/17 05:21:32;;;;;;;19.95;14.43;;;14.10;99.90;;;;;;6272644;22;20016;-74
2022/10/17 05:23:58;;;;;;;18.70;14.75;;;14.20;99.90;;;;;;6272188;22;20094;-74
2022/10/17 05:26:24;;;;;;;17.60;15.25;;;14.70;99.90;;;;;;6272880;22;20025;-74
2022/10/17 05:28:53;;;;;;;19.15;15.02;;;14.50;99.90;;;;;;6272948;22;20027;-74
2022/10/17 05:31:19;;;;;;;18.95;15.15;;;14.40;99.90;;;;;;6272678;22;20010;-74
2022/10/17 05:33:45;;;;;;;19.55;14.82;;;14.60;99.90;;;;;;6272948;22;20004;-74
2022/10/17 05:36:10;;;;;;;19.58;15.30;;;14.50;99.90;;;;;;6273237;22;19999;-74
2022/10/17 05:38:36;;;;;;;25.70;15.90;;;14.80;99.90;;;;;;6272142;22;19992;-74
2022/10/17 05:41:04;;;;;;;19.25;16.08;;;14.70;99.90;;;;;;6271600;22;20075;-74
2022/10/17 05:43:30;;;;;;;18.73;15.32;;;14.60;99.90;;;;;;6271100;22;20008;-74
2022/10/17 05:45:56;;;;;;;16.88;14.63;;;14.70;99.90;;;;;;6272981;22;20027;-74
2022/10/17 05:48:22;;;;;;;18.63;15.73;;;14.70;99.90;;;;;;6272695;22;20006;-74
2022/10/17 05:50:48;;;;;;;19.65;16.25;;;14.70;99.90;;;;;;6272617;22;20082;-74
2022/10/17 05:53:14;;;;;;;15.52;13.93;;;14.80;99.90;;;;;;6272364;22;20003;-74
2022/10/17 05:55:39;;;;;;;19.88;14.80;;;14.80;99.90;;;;;;6272542;22;19996;-74
2022/10/17 05:58:05;;;;;;;22.90;13.95;;;16.50;99.90;;;;;;6273002;22;20053;-74
2022/10/17 06:00:30;;;;;;;19.10;15.40;;;14.60;99.90;;;;;;6272695;22;20568;-74
2022/10/17 06:02:56;;;;;;;15.85;14.02;;;14.50;99.90;;;;;;6272598;22;20021;-74
2022/10/17 06:05:21;;;;;;;18.77;15.43;;;14.70;99.90;;;;;;6270937;22;19999;-72
2022/10/17 06:07:51;;;;;;;18.60;15.20;;;14.60;99.90;;;;;;6272055;22;20313;-71
2022/10/17 06:10:17;;;;;;;18.48;13.98;;;14.60;99.90;;;;;;6272541;22;20079;-72
2022/10/17 06:12:44;;;;;;;18.63;14.55;;;14.70;99.90;;;;;;6272473;22;20026;-72
2022/10/17 06:15:10;;;;;;;22.10;14.50;;;14.60;99.90;;;;;;6272964;22;20122;-72
2022/10/17 06:17:36;;;;;;;17.98;14.18;;;14.60;99.90;;;;;;6272546;22;20394;-74
2022/10/17 06:20:02;;;;;;;19.27;15.77;;;14.60;99.90;;;;;;6272899;22;20054;-72
2022/10/17 06:22:27;;;;;;;21.15;15.15;;;14.60;99.90;;;;;;6271628;22;20043;-72
2022/10/17 06:24:53;;;;;;;21.60;16.25;;;14.50;99.90;;;;;;6270884;22;20004;-72
2022/10/17 06:27:20;;;;;;;22.20;15.68;;;14.60;99.90;;;;;;6272511;22;20000;-72
2022/10/17 06:29:46;;;;;;;20.70;15.50;;;14.60;99.90;;;;;;6270801;22;20000;-73
2022/10/17 06:32:12;;;;;;;19.58;15.75;;;14.60;99.90;;;;;;6272651;22;20007;-72
2022/10/17 06:34:38;;;;;;;19.88;15.85;;;14.70;99.90;;;;;;6271920;22;19999;-72
2022/10/17 06:37:04;;;;;;;21.42;16.75;;;14.80;99.90;;;;;;6272166;22;20107;-72
2022/10/17 06:39:32;;;;;;;21.65;15.90;;;14.90;99.90;;;;;;6272232;22;20006;-72
2022/10/17 06:41:59;;;;;;;18.98;16.95;;;15.50;99.90;;;;;;6272137;22;20247;-72
2022/10/17 06:44:29;;;;;;;19.58;14.35;;;15.00;99.90;;;;;;6270432;22;20022;-73
2022/10/17 06:46:55;;;;;;;19.23;16.23;;;15.10;99.90;;;;;;6272185;22;20498;-72
2022/10/17 06:49:21;;;;;;;17.83;15.10;;;15.00;99.90;;;;;;6272125;22;20004;-74
2022/10/17 06:51:46;;;;;;;18.05;15.77;;;15.10;99.90;;;;;;6271778;22;20083;-72
2022/10/17 06:54:12;;;;;;;18.63;14.40;;;15.30;99.90;;;;;;6272426;22;20440;-73
2022/10/17 06:56:37;;;;;;;18.33;15.60;;;15.30;99.90;;;;;;6272015;22;20033;-73
2022/10/17 06:59:03;;;;;;;18.08;15.27;;;15.40;99.90;;;;;;6271142;22;20075;-73
2022/10/17 07:01:30;;;;;;;21.60;15.27;;;15.50;99.90;;;;;;6271952;22;20074;-73
2022/10/17 07:03:56;;;;;;;18.85;14.57;;;15.60;99.90;;;;;;6267532;22;20004;-73
2022/10/17 07:06:23;;;;;;;20.20;14.18;;;15.60;99.90;;;;;;6271820;22;20421;-73
2022/10/17 07:08:49;;;;;;;18.48;14.57;;;15.60;99.90;;;;;;6272174;22;20019;-73
2022/10/17 07:11:17;;;;;;;19.10;14.88;;;15.70;99.90;;;;;;6269195;22;20037;-73
2022/10/17 07:13:43;;;;;;;16.42;13.95;;;15.70;99.90;;;;;;6271823;22;20003;-73
2022/10/17 07:16:09;;;;;;;17.05;14.70;;;15.80;99.90;;;;;;6271914;22;20003;-73
2022/10/17 07:18:35;;;;;;;19.88;14.68;;;15.90;99.90;;;;;;6271381;22;20146;-73
2022/10/17 07:21:02;;;;;;;20.48;14.45;;;15.90;99.90;;;;;;6268503;22;20035;-73
2022/10/17 07:23:28;;;;;;;16.45;14.50;;;16.10;99.90;;;;;;6272098;22;20022;-73
2022/10/17 07:26:06;;;;;;;15.82;14.20;;;16.00;99.90;;;;;;6272041;22;20012;-73
2022/10/17 07:28:32;;;;;;;15.15;13.65;;;16.20;99.90;;;;;;6271757;22;20409;-73
2022/10/17 07:31:09;;;;;;;17.95;14.23;;;16.30;99.90;;;;;;6269393;22;20004;-73
2022/10/17 07:33:35;;;;;;;16.15;14.15;;;16.40;99.90;;;;;;6271227;22;20118;-73
2022/10/17 07:36:01;;;;;;;18.25;14.55;;;16.40;99.90;;;;;;6271768;22;20035;-73
2022/10/17 07:38:27;;;;;;;16.33;14.60;;;16.40;99.90;;;;;;6271562;22;20425;-73
2022/10/17 07:40:58;;;;;;;17.05;15.02;;;16.50;99.90;;;;;;6269575;22;20011;-74
2022/10/17 07:43:24;;;;;;;17.38;14.75;;;16.70;99.90;;;;;;6270060;22;19995;-73
2022/10/17 07:45:51;;;;;;;15.57;13.98;;;17.40;99.90;;;;;;6271603;22;20004;-73
2022/10/17 07:48:17;;;;;;;16.33;13.70;;;16.70;99.90;;;;;;6270908;22;20043;-74
2022/10/17 07:50:43;;;;;;;15.40;13.20;;;16.70;99.90;;;;;;6271642;22;20004;-73
2022/10/17 07:53:08;;;;;;;14.40;12.93;;;16.60;99.90;;;;;;6269212;22;20374;-73
2022/10/17 07:55:36;;;;;;;14.20;12.50;;;17.00;99.90;;;;;;6270525;22;20091;-73
2022/10/17 07:58:01;;;;;;;14.40;12.77;;;16.70;99.90;;;;;;6270245;22;20428;-73
2022/10/17 08:00:27;;;;;;;18.52;12.70;;;16.70;99.90;;;;;;6269995;22;20033;-73
2022/10/17 08:02:53;;;;;;;14.35;13.00;;;16.50;99.90;;;;;;6268904;22;20426;-73
2022/10/17 08:05:18;;;;;;;14.60;13.10;;;16.70;99.90;;;;;;6269395;22;20004;-74
2022/10/17 08:07:44;;;;;;;15.45;13.27;;;16.50;99.90;;;;;;6271455;22;20054;-73
2022/10/17 08:10:12;;;;;;;16.38;12.50;;;16.50;99.90;;;;;;6271066;22;20414;-73
2022/10/17 08:12:38;;;;;;;15.85;13.75;;;16.80;99.90;;;;;;6269715;22;20057;-74
2022/10/17 08:15:04;;;;;;;17.17;12.82;;;16.60;99.90;;;;;;6269416;22;20007;-73
2022/10/17 08:17:30;;;;;;;20.20;14.13;;;16.80;99.90;;;;;;6269956;22;19996;-73
2022/10/17 08:19:56;;;;;;;18.13;14.23;;;16.70;99.90;;;;;;6270013;22;20000;-72
2022/10/17 08:22:21;;;;;;;14.90;13.50;;;17.80;99.90;;;;;;6269776;22;20434;-72
2022/10/17 08:24:47;;;;;;;16.95;14.43;;;16.60;99.90;;;;;;6271122;22;20008;-72
2022/10/17 08:27:12;;;;;;;18.23;13.80;;;16.60;99.90;;;;;;6269765;22;20091;-72
2022/10/17 08:29:39;;;;;;;15.23;12.15;;;16.60;99.90;;;;;;6270563;22;20385;-71
2022/10/17 08:32:06;;;;;;;19.15;14.48;;;16.50;99.90;;;;;;6270148;22;19996;-71
2022/10/17 08:34:32;;;;;;;18.67;13.40;;;16.50;99.90;;;;;;6272975;22;20143;-72
2022/10/17 08:36:57;;;;;;;17.45;12.38;;;17.90;99.90;;;;;;6270863;22;20417;-72
2022/10/17 08:39:23;;;;;;;20.23;13.23;;;16.50;99.90;;;;;;6272978;22;20099;-72
2022/10/17 08:41:56;;;;;;;13.32;11.93;;;16.50;99.90;;;;;;6271690;22;20000;-72
2022/10/17 08:44:36;;;;;;;15.27;13.23;;;16.40;99.90;;;;;;6272495;22;19999;-72
2022/10/17 08:47:07;;;;;;;15.68;13.32;;;16.50;99.90;;;;;;6272976;22;20375;-72
2022/10/17 08:49:50;;;;;;;17.13;12.77;;;16.40;99.90;;;;;;6271645;22;20004;-72
2022/10/17 08:52:32;;;;;;;16.05;13.57;;;16.40;99.90;;;;;;6271620;22;20000;-72
2022/10/17 08:54:58;;;;;;;16.95;12.60;;;16.50;99.90;;;;;;6272899;22;19999;-72
2022/10/17 08:57:24;;;;;;;17.10;12.88;;;16.40;99.90;;;;;;6272490;22;20173;-71
2022/10/17 08:59:52;;;;;;;17.27;13.15;;;16.40;99.90;;;;;;6271614;22;20004;-72
2022/10/17 09:02:34;;;;;;;16.00;12.65;;;16.40;99.90;;;;;;6271264;22;20414;-72
2022/10/17 09:05:20;;;;;;;13.57;12.13;;;16.40;99.90;;;;;;6273024;22;20016;-72
2022/10/17 09:08:02;;;;;;;13.52;11.55;;;16.50;99.90;;;;;;6272466;22;20007;-72
2022/10/17 09:10:53;;;;;;;15.02;12.15;;;16.50;99.90;;;;;;6271200;22;20003;-72
2022/10/17 09:13:52;;;;;;;14.32;12.50;;;16.50;99.90;;;;;;6271378;22;20007;-72
2022/10/17 09:16:32;;;;;;;16.02;11.68;;;16.70;99.90;;;;;;6271723;22;20003;-72
2022/10/17 09:19:09;;;;;;;17.15;11.60;;;16.60;99.90;;;;;;6272987;22;20006;-72
2022/10/17 09:22:09;;;;;;;13.00;11.50;;;16.50;99.90;;;;;;6269995;22;20419;-72
2022/10/17 09:24:54;;;;;;;19.92;12.27;;;16.60;99.90;;;;;;6266465;22;20016;-72
2022/10/17 09:27:31;;;;;;;14.18;12.20;;;16.60;99.90;;;;;;6272598;22;20010;-72
2022/10/17 09:30:28;;;;;;;14.23;12.27;;;16.60;99.90;;;;;;6272285;22;20410;-72
2022/10/17 09:32:54;;;;;;;16.10;11.70;;;16.60;99.90;;;;;;6269793;22;20012;-72
2022/10/17 09:35:22;;;;;;;14.85;12.00;;;16.50;99.90;;;;;;6272648;22;20081;-72
2022/10/17 09:37:49;;;;;;;13.45;11.00;;;16.40;99.90;;;;;;6272534;22;20019;-71
2022/10/17 09:40:31;;;;;;;19.10;12.52;;;17.00;99.90;;;;;;6272563;22;20011;-72
2022/10/17 09:42:59;;;;;;;12.65;11.07;;;16.50;99.90;;;;;;6269664;22;20039;-71
2022/10/17 09:45:25;;;;;;;18.27;12.05;;;16.60;99.90;;;;;;6271833;22;20087;-71
2022/10/17 09:48:09;;;;;;;15.35;12.23;;;17.20;99.90;;;;;;6272626;22;20406;-72
2022/10/17 09:50:35;;;;;;;17.48;12.70;;;16.60;99.90;;;;;;6272510;22;20445;-71
2022/10/17 09:53:13;;;;;;;16.13;11.63;;;16.50;99.90;;;;;;6270472;22;20008;-71
2022/10/17 09:55:44;;;;;;;13.15;11.10;;;16.50;99.90;;;;;;6271929;22;20040;-70
2022/10/17 09:58:10;;;;;;;14.40;10.73;;;16.60;99.90;;;;;;6272109;22;20010;-71
2022/10/17 10:00:39;;;;;;;18.50;12.75;;;16.50;99.90;;;;;;6272135;22;20007;-71
2022/10/17 10:03:25;;;;;;;15.38;11.65;;;16.60;99.90;;;;;;6270604;22;20010;-71
2022/10/17 10:06:01;;;;;;;17.33;12.63;;;16.50;99.90;;;;;;6270417;22;20049;-71
2022/10/17 10:08:33;;;;;;;13.57;11.70;;;16.60;99.90;;;;;;6271495;22;19996;-71
2022/10/17 10:11:03;;;;;;;11.30;10.02;;;16.70;99.90;;;;;;6270736;22;20008;-71
2022/10/17 10:13:31;;;;;;;14.45;10.82;;;16.80;99.90;;;;;;6271968;22;20362;-71
2022/10/17 10:16:15;;;;;;;13.70;12.02;;;16.70;99.90;;;;;;6270959;22;20433;-71
2022/10/17 10:18:41;;;;;;;12.15;10.95;;;16.70;99.90;;;;;;6270471;22;20000;-71
2022/10/17 10:21:13;;;;;;;13.55;10.50;;;16.70;99.90;;;;;;6270477;22;20003;-71
2022/10/17 10:23:44;;;;;;;11.70;9.77;;;16.90;99.90;;;;;;6271752;22;20030;-71
2022/10/17 10:26:28;;;;;;;12.30;10.93;;;16.80;99.90;;;;;;6271263;22;20302;-71
2022/10/17 10:29:04;;;;;;;15.48;11.40;;;16.90;99.90;;;;;;6271368;22;20386;-71
2022/10/17 10:31:33;;;;;;;11.82;10.60;;;17.70;99.90;;;;;;6268869;22;20007;-71
2022/10/17 10:34:01;;;;;;;13.00;11.68;;;16.80;99.90;;;;;;6271528;22;20004;-71
2022/10/17 10:36:43;;;;;;;14.85;11.32;;;16.80;99.90;;;;;;6269806;22;19996;-71
2022/10/17 10:39:30;;;;;;;14.73;11.88;;;16.70;99.90;;;;;;6272112;22;20428;-71
2022/10/17 10:41:56;;;;;;;12.23;11.05;;;16.90;99.90;;;;;;6270125;22;20003;-71
2022/10/17 10:44:24;;;;;;;15.00;12.02;;;16.90;99.90;;;;;;6271867;22;20000;-71
2022/10/17 10:47:13;;;;;;;18.20;12.85;;;16.90;99.90;;;;;;6270230;22;20101;-71
2022/10/17 10:49:38;;;;;;;16.27;13.02;;;17.20;99.90;;;;;;6271711;22;19995;-71
2022/10/17 10:52:05;;;;;;;14.75;12.48;;;17.00;99.90;;;;;;6270787;22;20321;-71
2022/10/17 10:54:36;;;;;;;14.85;12.13;;;17.00;99.90;;;;;;6271503;22;20034;-71
2022/10/17 10:57:06;;;;;;;14.43;11.82;;;17.10;99.90;;;;;;6270346;22;19996;-71
2022/10/17 10:59:36;;;;;;;15.60;12.52;;;17.20;99.90;;;;;;6271330;22;20435;-71
2022/10/17 11:02:09;;;;;;;13.95;11.10;;;17.30;99.90;;;;;;6270240;22;20075;-70
2022/10/17 11:04:47;;;;;;;14.32;11.50;;;18.50;99.90;;;;;;6271930;22;20000;-70
2022/10/17 11:07:40;;;;;;;13.55;11.38;;;17.30;99.90;;;;;;6271830;22;20117;-70
2022/10/17 11:10:25;;;;;;;12.55;10.80;;;17.30;99.90;;;;;;6271052;22;19999;-71
2022/10/17 11:13:03;;;;;;;12.52;11.20;;;17.30;99.90;;;;;;6269505;22;20207;-71
2022/10/17 11:15:56;;;;;;;16.40;11.63;;;18.00;99.90;;;;;;6271792;22;20409;-71
2022/10/17 11:18:29;;;;;;;12.88;10.88;;;17.30;99.90;;;;;;6269403;22;19992;-71
2022/10/17 11:21:16;;;;;;;12.47;10.37;;;17.30;99.90;;;;;;6270572;22;19996;-71
2022/10/17 11:24:13;;;;;;;15.77;12.13;;;17.20;99.90;;;;;;6270580;22;20019;-71
2022/10/17 11:26:49;;;;;;;13.35;11.77;;;17.30;99.90;;;;;;6268961;22;20000;-71
2022/10/17 11:29:14;;;;;;;15.10;11.73;;;17.20;99.90;;;;;;6270318;22;20008;-71
2022/10/17 11:31:51;;;;;;;15.32;12.15;;;17.30;99.90;;;;;;6270063;22;20130;-71
2022/10/17 11:34:26;;;;;;;12.50;11.23;;;17.40;99.90;;;;;;6271139;22;20012;-71
2022/10/17 11:36:58;;;;;;;17.73;13.07;;;17.40;99.90;;;;;;6271362;22;19999;-71
2022/10/17 11:39:48;;;;;;;15.07;12.75;;;17.40;99.90;;;;;;6270575;22;20000;-71
2022/10/17 11:42:28;;;;;;;18.55;12.57;;;17.30;99.90;;;;;;6270462;22;20023;-71
2022/10/17 11:45:01;;;;;;;15.93;12.75;;;17.30;99.90;;;;;;6271383;22;20000;-71
2022/10/17 11:47:39;;;;;;;14.48;12.23;;;17.50;99.90;;;;;;6268391;22;20314;-71
2022/10/17 11:50:07;;;;;;;17.58;14.85;;;17.50;99.90;;;;;;6268487;22;20010;-71
2022/10/17 11:52:47;;;;;;;16.70;14.32;;;17.60;99.90;;;;;;6269148;22;20014;-71
2022/10/17 11:55:19;;;;;;;17.95;13.88;;;17.60;99.90;;;;;;6271572;22;20050;-71
2022/10/17 11:58:03;;;;;;;20.60;15.13;;;17.70;99.90;;;;;;6270571;22;19999;-72
2022/10/17 12:00:51;;;;;;;17.30;14.02;;;17.70;99.90;;;;;;6270783;22;20049;-71
2022/10/17 12:03:45;;;;;;;17.48;14.43;;;17.80;99.90;;;;;;6270286;22;20025;-70
2022/10/17 12:06:14;;;;;;;18.33;14.45;;;17.70;99.90;;;;;;6227792;22;20004;-71
2022/10/17 12:08:56;;;;;;;17.27;14.70;;;17.60;99.90;;;;;;6271013;22;20000;-71
2022/10/17 12:11:33;;;;;;;27.05;15.60;;;17.80;99.90;;;;;;6270876;22;20027;-72
2022/10/17 12:14:00;;;;;;;17.27;15.00;;;17.60;99.90;;;;;;6272801;22;20085;-72
2022/10/17 12:16:28;;;;;;;19.52;15.38;;;19.30;99.90;;;;;;6273300;22;19996;-72
2022/10/17 12:19:19;;;;;;;21.17;16.63;;;17.60;99.90;;;;;;6273403;22;20003;-72
2022/10/17 12:22:20;;;;;;;17.52;15.73;;;17.60;99.90;;;;;;6270687;22;20020;-71
2022/10/17 12:24:57;;;;;;;19.02;15.82;;;17.60;99.90;;;;;;6271577;22;20004;-71
2022/10/17 12:27:34;;;;;;;16.20;14.50;;;17.70;99.90;;;;;;6271477;22;20018;-72
2022/10/17 12:30:02;;;;;;;15.98;14.35;;;17.80;99.90;;;;;;6272761;22;20000;-71
2022/10/17 12:32:27;;;;;;;22.30;15.32;;;17.80;99.90;;;;;;6268865;22;20003;-71
2022/10/17 12:34:55;;;;;;;20.55;15.70;;;17.70;99.90;;;;;;6271473;22;19995;-71
2022/10/17 12:37:45;;;;;;;17.95;14.90;;;18.60;99.90;;;;;;6272364;22;19998;-71
2022/10/17 12:40:36;;;;;;;15.18;13.63;;;17.90;99.90;;;;;;6272675;22;20371;-71
2022/10/17 12:43:14;;;;;;;19.73;14.27;;;18.00;99.90;;;;;;6271472;22;20007;-70
2022/10/17 12:45:51;;;;;;;18.00;15.05;;;18.00;99.90;;;;;;6270457;22;20000;-71
2022/10/17 12:48:32;;;;;;;17.73;15.60;;;18.70;99.90;;;;;;6272532;22;20000;-72